createdAt,value
2023-03-03T00:01:39.830Z,122.80
2023-03-03T00:04:06.383Z,130.63
2023-03-03T00:06:32.920Z,128.37
2023-03-03T00:08:59.445Z,127.63
2023-03-03T00:11:25.896Z,125.87
2023-03-03T00:13:54.627Z,126.93
2023-03-03T00:16:26.373Z,118.70
2023-03-03T00:18:53.918Z,123.80
2023-03-03T00:21:23.292Z,132.13
2023-03-03T00:23:50.716Z,133.77
2023-03-03T00:26:28.039Z,128.73
2023-03-03T00:28:57.134Z,128.70
2023-03-03T00:31:34.821Z,116.43
2023-03-03T00:34:25.506Z,135.27
2023-03-03T00:36:57.286Z,129.10
2023-03-03T00:39:37.023Z,118.40
2023-03-03T00:42:24.666Z,115.80
2023-03-03T00:45:00.698Z,117.47
2023-03-03T00:47:32.061Z,122.93
2023-03-03T00:50:08.465Z,113.77
2023-03-03T00:52:37.335Z,112.63
2023-03-03T00:55:05.154Z,116.47
2023-03-03T00:57:31.954Z,113.93
2023-03-03T00:59:58.477Z,108.10
2023-03-03T01:02:25.527Z,109.97
2023-03-03T01:04:54.392Z,118.97
2023-03-03T01:07:21.627Z,107.07
2023-03-03T01:09:48.380Z,116.93
2023-03-03T01:12:15.537Z,121.80
2023-03-03T01:14:42.311Z,133.13
2023-03-03T01:17:08.840Z,116.63
2023-03-03T01:19:35.392Z,116.27
2023-03-03T01:22:01.966Z,125.17
2023-03-03T01:24:28.474Z,144.73
2023-03-03T01:26:55.046Z,120.23
2023-03-03T01:29:21.526Z,121.40
2023-03-03T01:31:47.975Z,108.80
2023-03-03T01:34:14.583Z,105.90
2023-03-03T01:36:41.344Z,106.33
2023-03-03T01:39:08.047Z,103.17
2023-03-03T01:41:34.585Z,99.23
2023-03-03T01:44:01.260Z,120.07
2023-03-03T01:46:40.763Z,106.97
2023-03-03T01:49:14.608Z,175.83
2023-03-03T01:51:51.143Z,111.20
2023-03-03T01:54:39.229Z,108.03
2023-03-03T01:57:08.444Z,111.40
2023-03-03T01:59:38.098Z,100.60
2023-03-03T02:02:05.072Z,104.60
2023-03-03T02:04:31.896Z,100.33
2023-03-03T02:07:01.970Z,105.70
2023-03-03T02:09:56.202Z,92.03
2023-03-03T02:12:37.037Z,99.47
2023-03-03T02:15:22.395Z,98.13
2023-03-03T02:17:51.230Z,104.77
2023-03-03T02:20:39.653Z,133.90
2023-03-03T02:23:31.408Z,97.97
2023-03-03T02:25:59.171Z,101.90
2023-03-03T02:28:32.665Z,99.43
2023-03-03T02:31:00.370Z,105.07
2023-03-03T02:33:28.221Z,96.30
2023-03-03T02:35:55.328Z,92.37
2023-03-03T02:38:30.031Z,94.73
2023-03-03T02:41:03.829Z,99.03
2023-03-03T02:43:47.323Z,98.13
2023-03-03T02:46:14.293Z,94.93
2023-03-03T02:48:41.103Z,86.83
2023-03-03T02:51:07.687Z,90.73
2023-03-03T02:53:34.393Z,83.93
2023-03-03T02:56:00.998Z,86.80
2023-03-03T02:58:27.731Z,91.23
2023-03-03T03:00:55.629Z,84.30
2023-03-03T03:03:22.644Z,86.57
2023-03-03T03:05:49.341Z,94.43
2023-03-03T03:08:15.955Z,88.33
2023-03-03T03:10:42.410Z,86.70
2023-03-03T03:13:09.367Z,79.10
2023-03-03T03:15:36.255Z,76.73
2023-03-03T03:18:02.913Z,79.20
2023-03-03T03:20:29.413Z,76.93
2023-03-03T03:22:56.009Z,75.20
2023-03-03T03:25:22.520Z,82.67
2023-03-03T03:27:49.148Z,80.53
2023-03-03T03:30:16.104Z,82.73
2023-03-03T03:32:42.612Z,81.50
2023-03-03T03:35:09.329Z,74.53
2023-03-03T03:37:35.763Z,74.53
2023-03-03T03:40:02.172Z,74.73
2023-03-03T03:42:28.631Z,72.07
2023-03-03T03:44:55.064Z,77.03
2023-03-03T03:47:21.927Z,80.17
2023-03-03T03:49:48.493Z,84.93
2023-03-03T03:52:15.367Z,74.90
2023-03-03T03:54:41.958Z,81.13
2023-03-03T03:57:08.718Z,77.07
2023-03-03T03:59:35.265Z,70.03
2023-03-03T04:02:01.912Z,75.13
2023-03-03T04:04:28.600Z,73.47
2023-03-03T04:06:55.212Z,66.77
2023-03-03T04:09:21.657Z,73.27
2023-03-03T04:11:48.295Z,71.93
2023-03-03T04:14:14.792Z,71.00
2023-03-03T04:16:41.302Z,64.73
2023-03-03T04:19:07.880Z,67.53
2023-03-03T04:21:34.383Z,67.77
2023-03-03T04:24:00.902Z,71.83
2023-03-03T04:26:27.440Z,69.43
2023-03-03T04:28:53.948Z,71.37
2023-03-03T04:31:20.734Z,73.13
2023-03-03T04:33:47.298Z,73.13
2023-03-03T04:36:13.927Z,72.73
2023-03-03T04:38:40.525Z,71.23
2023-03-03T04:41:07.268Z,70.67
2023-03-03T04:43:33.989Z,70.13
2023-03-03T04:46:00.429Z,71.97
2023-03-03T04:48:27.025Z,72.70
2023-03-03T04:50:53.505Z,72.63
2023-03-03T04:53:19.970Z,71.93
2023-03-03T04:55:46.632Z,73.37
2023-03-03T04:58:13.197Z,73.20
2023-03-03T05:00:40.142Z,72.33
2023-03-03T05:03:07.081Z,73.67
2023-03-03T05:05:33.536Z,75.27
2023-03-03T05:08:00.037Z,73.67
2023-03-03T05:10:26.817Z,71.50
2023-03-03T05:12:53.337Z,66.93
2023-03-03T05:15:20.293Z,69.27
2023-03-03T05:17:46.807Z,72.73
2023-03-03T05:20:13.903Z,73.97
2023-03-03T05:22:40.622Z,82.77
2023-03-03T05:25:07.700Z,101.30
2023-03-03T05:27:34.410Z,74.10
2023-03-03T05:30:00.852Z,80.10
2023-03-03T05:32:27.378Z,73.00
2023-03-03T05:34:54.066Z,68.73
2023-03-03T05:37:20.810Z,80.37
2023-03-03T05:39:47.370Z,74.53
2023-03-03T05:42:14.572Z,74.13
2023-03-03T05:44:41.358Z,76.77
2023-03-03T05:47:07.951Z,68.93
2023-03-03T05:49:34.610Z,74.13
2023-03-03T05:52:01.557Z,86.23
2023-03-03T05:54:28.172Z,77.70
2023-03-03T05:56:54.619Z,79.67
2023-03-03T05:59:21.396Z,76.57
2023-03-03T06:01:47.922Z,78.40
2023-03-03T06:04:14.485Z,69.30
2023-03-03T06:06:41.022Z,70.93
2023-03-03T06:09:07.596Z,76.47
2023-03-03T06:11:34.077Z,80.90
2023-03-03T06:14:00.576Z,75.87
2023-03-03T06:16:27.162Z,83.67
2023-03-03T06:18:53.627Z,73.37
2023-03-03T06:21:20.069Z,82.17
2023-03-03T06:23:47.073Z,76.40
2023-03-03T06:26:13.725Z,80.33
2023-03-03T06:28:40.261Z,73.73
2023-03-03T06:31:06.804Z,72.17
2023-03-03T06:33:33.279Z,74.90
2023-03-03T06:35:59.963Z,71.77
2023-03-03T06:38:26.770Z,67.23
2023-03-03T06:40:53.493Z,69.20
2023-03-03T06:43:20.514Z,79.10
2023-03-03T06:45:47.123Z,69.43
2023-03-03T06:48:13.843Z,66.77
2023-03-03T06:50:40.644Z,62.13
2023-03-03T06:53:14.147Z,63.77
2023-03-03T06:55:44.326Z,63.87
2023-03-03T06:58:21.512Z,62.33
2023-03-03T07:00:57.487Z,63.37
2023-03-03T07:03:25.895Z,69.37
2023-03-03T07:05:53.628Z,70.97
2023-03-03T07:08:22.500Z,63.10
2023-03-03T07:10:50.283Z,66.73
2023-03-03T07:13:27.872Z,64.20
2023-03-03T07:15:56.355Z,68.63
2023-03-03T07:18:35.122Z,66.27
2023-03-03T07:21:17.380Z,66.03
2023-03-03T07:23:45.648Z,64.23
2023-03-03T07:26:14.222Z,64.83
2023-03-03T07:28:43.134Z,64.13
2023-03-03T07:31:36.964Z,58.80
2023-03-03T07:34:15.206Z,55.50
2023-03-03T07:36:41.823Z,60.63
2023-03-03T07:39:33.218Z,59.20
2023-03-03T07:42:09.575Z,57.33
2023-03-03T07:44:37.234Z,62.07
2023-03-03T07:47:36.353Z,56.37
2023-03-03T07:50:19.024Z,54.67
2023-03-03T07:53:14.761Z,50.40
2023-03-03T07:55:41.513Z,50.70
2023-03-03T07:58:11.238Z,50.20
2023-03-03T08:01:15.452Z,50.13
2023-03-03T08:03:44.848Z,47.80
2023-03-03T08:06:42.825Z,46.87
2023-03-03T08:09:12.335Z,43.13
2023-03-03T08:12:08.065Z,39.13
2023-03-03T08:14:36.306Z,42.40
2023-03-03T08:17:07.903Z,41.77
2023-03-03T08:19:34.433Z,40.37
2023-03-03T08:22:07.112Z,41.97
2023-03-03T08:24:33.552Z,36.47
2023-03-03T08:27:00.113Z,36.07
2023-03-03T08:29:26.486Z,38.93
2023-03-03T08:31:53.031Z,36.00
2023-03-03T08:34:20.649Z,37.33
2023-03-03T08:36:47.489Z,36.57
2023-03-03T08:39:13.996Z,35.60
2023-03-03T08:41:43.741Z,39.63
2023-03-03T08:44:11.120Z,34.67
2023-03-03T08:46:37.917Z,35.50
2023-03-03T08:49:04.472Z,39.10
2023-03-03T08:51:31.082Z,36.03
2023-03-03T08:53:57.559Z,36.20
2023-03-03T08:56:24.046Z,34.40
2023-03-03T08:59:01.878Z,30.57
2023-03-03T09:01:29.917Z,30.87
2023-03-03T09:03:56.481Z,30.43
2023-03-03T09:06:23.462Z,29.67
2023-03-03T09:08:50.338Z,32.97
2023-03-03T09:11:24.231Z,33.23
2023-03-03T09:13:53.305Z,30.60
2023-03-03T09:16:22.212Z,32.20
2023-03-03T09:18:48.753Z,28.83
2023-03-03T09:21:27.090Z,27.53
2023-03-03T09:23:58.516Z,27.80
2023-03-03T09:26:45.075Z,25.13
2023-03-03T09:29:14.416Z,22.33
2023-03-03T09:31:46.544Z,23.77
2023-03-03T09:34:21.580Z,24.37
2023-03-03T09:36:49.521Z,22.70
2023-03-03T09:39:21.187Z,22.43
2023-03-03T09:42:28.699Z,23.03
2023-03-03T09:45:17.976Z,23.03
2023-03-03T09:48:08.882Z,22.27
2023-03-03T09:50:49.383Z,21.30
2023-03-03T09:53:25.044Z,21.17
2023-03-03T09:56:08.352Z,21.77
2023-03-03T09:58:45.723Z,22.23
2023-03-03T10:01:24.496Z,20.57
2023-03-03T10:04:00.660Z,19.50
2023-03-03T10:06:45.796Z,17.03
2023-03-03T10:09:55.350Z,18.90
2023-03-03T10:12:46.467Z,20.07
2023-03-03T10:15:26.162Z,20.30
2023-03-03T10:17:54.282Z,17.57
2023-03-03T10:20:59.584Z,20.20
2023-03-03T10:23:42.432Z,18.87
2023-03-03T10:26:17.504Z,18.47
2023-03-03T10:28:58.816Z,20.93
2023-03-03T10:31:54.096Z,18.13
2023-03-03T10:34:39.348Z,14.67
2023-03-03T10:37:14.005Z,16.07
2023-03-03T10:39:54.978Z,17.23
2023-03-03T10:43:00.405Z,15.20
2023-03-03T10:46:04.015Z,16.07
2023-03-03T10:48:45.832Z,15.30
2023-03-03T10:51:25.512Z,14.70
2023-03-03T10:54:38.591Z,14.73
2023-03-03T10:57:42.855Z,15.03
2023-03-03T11:00:31.962Z,14.60
2023-03-03T11:03:36.623Z,17.73
2023-03-03T11:06:20.638Z,13.57
2023-03-03T11:08:57.585Z,15.30
2023-03-03T11:11:46.979Z,13.23
2023-03-03T11:14:38.814Z,14.57
2023-03-03T11:17:19.349Z,13.50
2023-03-03T11:20:24.303Z,12.80
2023-03-03T11:23:08.198Z,13.03
2023-03-03T11:25:56.636Z,15.40
2023-03-03T11:28:35.596Z,14.50
2023-03-03T11:31:05.121Z,12.70
2023-03-03T11:33:40.667Z,12.47
2023-03-03T11:36:13.219Z,13.57
2023-03-03T11:38:59.174Z,16.40
2023-03-03T11:41:40.861Z,16.33
2023-03-03T11:44:29.269Z,12.73
2023-03-03T11:47:32.069Z,16.53
2023-03-03T11:50:32.373Z,14.97
2023-03-03T11:53:49.660Z,14.50
2023-03-03T11:56:23.417Z,16.50
2023-03-03T11:58:58.873Z,15.87
2023-03-03T12:01:47.035Z,14.13
2023-03-03T12:04:16.299Z,15.50
2023-03-03T12:07:12.923Z,12.43
2023-03-03T12:10:09.043Z,12.77
2023-03-03T12:12:44.351Z,12.87
2023-03-03T12:15:28.016Z,13.00
2023-03-03T12:18:03.952Z,15.90
2023-03-03T12:20:48.849Z,12.90
2023-03-03T12:23:18.540Z,13.00
2023-03-03T12:25:58.762Z,12.87
2023-03-03T12:28:28.526Z,12.97
2023-03-03T12:31:14.097Z,15.40
2023-03-03T12:33:53.191Z,13.33
2023-03-03T12:36:27.778Z,14.03
2023-03-03T12:39:05.835Z,13.83
2023-03-03T12:41:53.723Z,13.07
2023-03-03T12:44:37.493Z,14.63
2023-03-03T12:47:11.402Z,13.20
2023-03-03T12:50:08.085Z,12.00
2023-03-03T12:52:57.507Z,21.17
2023-03-03T12:55:43.815Z,15.10
2023-03-03T12:58:45.834Z,14.10
2023-03-03T13:01:22.681Z,17.10
2023-03-03T13:04:10.611Z,16.80
2023-03-03T13:07:12.723Z,16.87
2023-03-03T13:10:14.426Z,20.50
2023-03-03T13:13:04.110Z,20.67
2023-03-03T13:15:55.263Z,17.20
2023-03-03T13:18:28.560Z,20.07
2023-03-03T13:21:11.437Z,20.77
2023-03-03T13:23:49.210Z,22.77
2023-03-03T13:26:45.141Z,22.53
2023-03-03T13:29:26.869Z,19.30
2023-03-03T13:31:59.978Z,21.87
2023-03-03T13:34:32.587Z,20.33
2023-03-03T13:37:06.643Z,20.87
2023-03-03T13:39:38.572Z,17.70
2023-03-03T13:42:16.164Z,16.07
2023-03-03T13:44:43.786Z,14.67
2023-03-03T13:47:25.436Z,15.53
2023-03-03T13:50:14.030Z,18.30
2023-03-03T13:52:59.692Z,16.87
2023-03-03T13:55:46.666Z,18.77
2023-03-03T13:58:16.258Z,18.43
2023-03-03T14:01:05.030Z,18.27
2023-03-03T14:03:43.794Z,16.93
2023-03-03T14:06:15.890Z,18.10
2023-03-03T14:08:56.008Z,21.00
2023-03-03T14:11:49.039Z,21.03
2023-03-03T14:14:18.373Z,23.90
2023-03-03T14:16:54.015Z,18.83
2023-03-03T14:19:23.262Z,19.60
2023-03-03T14:21:58.131Z,21.10
2023-03-03T14:24:26.601Z,21.33
2023-03-03T14:26:55.486Z,19.53
2023-03-03T14:29:35.176Z,20.37
2023-03-03T14:32:03.970Z,20.10
2023-03-03T14:34:38.778Z,20.13
2023-03-03T14:37:29.462Z,19.97
2023-03-03T14:40:22.440Z,18.23
2023-03-03T14:42:57.032Z,19.40
2023-03-03T14:45:40.591Z,20.13
2023-03-03T14:48:18.348Z,15.80
2023-03-03T14:50:52.007Z,26.27
2023-03-03T14:53:18.570Z,20.83
2023-03-03T14:55:50.310Z,19.13
2023-03-03T14:58:29.136Z,19.03
2023-03-03T15:01:33.223Z,19.53
2023-03-03T15:04:25.228Z,18.67
2023-03-03T15:06:53.854Z,19.57
2023-03-03T15:09:38.958Z,21.97
2023-03-03T15:12:19.796Z,22.37
2023-03-03T15:14:49.122Z,17.50
2023-03-03T15:17:33.604Z,18.07
2023-03-03T15:20:23.235Z,16.13
2023-03-03T15:23:32.030Z,18.27
2023-03-03T15:26:06.769Z,19.63
2023-03-03T15:28:55.211Z,18.97
2023-03-03T15:31:30.709Z,20.43
2023-03-03T15:34:16.006Z,26.00
2023-03-03T15:36:49.217Z,58.03
2023-03-03T15:40:17.869Z,32.00
2023-03-03T15:42:58.479Z,54.47
2023-03-03T15:45:43.658Z,23.07
2023-03-03T15:48:17.392Z,25.43
2023-03-03T15:50:57.095Z,20.13
2023-03-03T15:53:35.905Z,25.37
2023-03-03T15:56:21.363Z,23.40
2023-03-03T15:59:06.808Z,25.00
2023-03-03T16:01:34.990Z,24.80
2023-03-03T16:04:20.181Z,25.13
2023-03-03T16:06:58.930Z,26.43
2023-03-03T16:09:32.246Z,26.93
2023-03-03T16:12:10.237Z,24.57
2023-03-03T16:14:55.464Z,24.37
2023-03-03T16:17:40.439Z,25.70
2023-03-03T16:20:29.891Z,25.07
2023-03-03T16:23:23.343Z,30.13
2023-03-03T16:25:58.976Z,36.23
2023-03-03T16:28:47.437Z,34.83
2023-03-03T16:31:22.494Z,40.57
2023-03-03T16:33:55.278Z,48.87
2023-03-03T16:36:21.664Z,45.20
2023-03-03T16:38:53.409Z,46.43
2023-03-03T16:41:59.807Z,48.93
2023-03-03T16:44:38.430Z,39.80
2023-03-03T16:47:23.863Z,39.97
2023-03-03T16:49:55.818Z,38.00
2023-03-03T16:52:48.283Z,40.77
2023-03-03T16:56:13.422Z,42.60
2023-03-03T16:58:55.038Z,40.83
2023-03-03T17:01:43.990Z,35.37
2023-03-03T17:04:44.980Z,35.93
2023-03-03T17:07:39.427Z,45.17
2023-03-03T17:10:17.679Z,38.63
2023-03-03T17:13:16.486Z,41.10
2023-03-03T17:15:46.004Z,42.93
2023-03-03T17:18:14.511Z,49.73
2023-03-03T17:20:49.161Z,48.17
2023-03-03T17:23:21.657Z,48.57
2023-03-03T17:26:06.718Z,49.70
2023-03-03T17:28:55.657Z,54.43
2023-03-03T17:31:31.282Z,55.87
2023-03-03T17:34:10.260Z,52.73
2023-03-03T17:36:58.419Z,49.43
2023-03-03T17:39:50.244Z,54.50
2023-03-03T17:42:37.020Z,54.50
2023-03-03T17:45:14.922Z,60.17
2023-03-03T17:47:56.794Z,66.57
2023-03-03T17:50:48.215Z,60.90
2023-03-03T17:53:23.917Z,53.37
2023-03-03T17:55:56.409Z,54.17
2023-03-03T17:58:29.072Z,56.07
2023-03-03T18:01:03.197Z,56.63
2023-03-03T18:03:52.524Z,58.13
2023-03-03T18:06:43.610Z,59.97
2023-03-03T18:09:17.368Z,62.10
2023-03-03T18:12:05.204Z,55.77
2023-03-03T18:14:53.545Z,55.77
2023-03-03T18:17:39.207Z,56.13
2023-03-03T18:20:28.498Z,57.97
2023-03-03T18:22:55.396Z,54.27
2023-03-03T18:25:27.070Z,54.07
2023-03-03T18:27:59.546Z,47.07
2023-03-03T18:30:33.457Z,56.20
2023-03-03T18:33:03.332Z,53.40
2023-03-03T18:35:32.820Z,59.57
2023-03-03T18:38:17.788Z,58.13
2023-03-03T18:41:04.466Z,66.17
2023-03-03T18:43:43.154Z,60.40
2023-03-03T18:46:36.046Z,63.10
2023-03-03T18:49:10.182Z,66.50
2023-03-03T18:51:39.813Z,68.10
2023-03-03T18:54:30.917Z,66.77
2023-03-03T18:56:57.884Z,70.37
2023-03-03T18:59:30.513Z,67.53
2023-03-03T19:02:18.183Z,69.00
2023-03-03T19:05:08.766Z,68.03
2023-03-03T19:07:59.788Z,68.47
2023-03-03T19:10:49.807Z,69.37
2023-03-03T19:13:34.717Z,70.37
2023-03-03T19:16:06.436Z,68.23
2023-03-03T19:18:56.050Z,69.27
2023-03-03T19:21:28.022Z,67.77
2023-03-03T19:24:00.511Z,71.57
2023-03-03T19:26:30.258Z,67.77
2023-03-03T19:29:09.219Z,67.77
2023-03-03T19:31:49.788Z,66.23
2023-03-03T19:34:19.247Z,69.03
2023-03-03T19:37:28.403Z,66.77
2023-03-03T19:40:18.513Z,65.50
2023-03-03T19:43:36.446Z,75.60
2023-03-03T19:46:43.642Z,69.70
2023-03-03T19:49:41.275Z,70.73
2023-03-03T19:52:25.327Z,74.43
2023-03-03T19:55:04.513Z,66.93
2023-03-03T19:57:35.896Z,68.37
2023-03-03T20:00:20.687Z,72.23
2023-03-03T20:03:05.977Z,68.83
2023-03-03T20:05:35.046Z,68.07
2023-03-03T20:08:17.498Z,71.23
2023-03-03T20:10:57.670Z,63.23
2023-03-03T20:13:37.499Z,70.50
2023-03-03T20:16:30.234Z,69.73
2023-03-03T20:19:18.583Z,74.53
2023-03-03T20:21:48.166Z,63.33
2023-03-03T20:24:47.335Z,89.60
2023-03-03T20:27:20.898Z,71.47
2023-03-03T20:33:15.887Z,69.87
2023-03-03T20:36:17.816Z,72.27
2023-03-03T20:39:04.707Z,63.17
2023-03-03T20:42:09.183Z,75.63
2023-03-03T20:45:35.258Z,70.63
2023-03-03T20:48:50.160Z,67.27
2023-03-03T20:51:43.172Z,68.97
2023-03-03T20:54:59.792Z,69.67
2023-03-03T20:57:51.983Z,70.50
2023-03-03T21:00:32.027Z,72.37
2023-03-03T21:03:18.453Z,74.07
2023-03-03T21:06:01.038Z,74.87
2023-03-03T21:08:41.970Z,71.33
2023-03-03T21:11:12.785Z,76.03
2023-03-03T21:13:42.949Z,78.07
2023-03-03T21:16:21.929Z,82.63
2023-03-03T21:18:59.926Z,82.17
2023-03-03T21:21:29.216Z,82.97
2023-03-03T21:24:03.796Z,84.83
2023-03-03T21:26:47.708Z,80.60
2023-03-03T21:29:36.856Z,81.43
2023-03-03T21:32:09.713Z,86.20
2023-03-03T21:34:39.448Z,87.53
2023-03-03T21:37:11.566Z,94.37
2023-03-03T21:39:40.951Z,92.57
2023-03-03T21:42:12.354Z,84.17
2023-03-03T21:44:44.638Z,86.67
2023-03-03T21:47:14.757Z,95.17
2023-03-03T21:49:43.047Z,95.07
2023-03-03T21:52:10.758Z,86.10
2023-03-03T21:54:37.361Z,96.53
2023-03-03T21:57:04.250Z,96.93
2023-03-03T21:59:30.875Z,90.37
2023-03-03T22:01:57.534Z,91.37
2023-03-03T22:04:24.208Z,95.30
2023-03-03T22:06:52.724Z,95.93
2023-03-03T22:09:19.552Z,97.07
2023-03-03T22:11:46.063Z,99.47
2023-03-03T22:14:12.619Z,93.97
2023-03-03T22:16:39.442Z,94.70
2023-03-03T22:19:06.315Z,97.33
2023-03-03T22:21:32.753Z,98.80
2023-03-03T22:23:59.219Z,90.27
2023-03-03T22:26:26.253Z,89.20
2023-03-03T22:28:52.859Z,84.93
2023-03-03T22:31:22.523Z,90.27
2023-03-03T22:33:49.760Z,88.67
2023-03-03T22:36:16.472Z,85.67
2023-03-03T22:38:43.008Z,73.57
2023-03-03T22:41:09.533Z,82.67
2023-03-03T22:43:36.079Z,79.27
2023-03-03T22:46:02.625Z,75.73
2023-03-03T22:48:30.061Z,75.57
2023-03-03T22:50:56.513Z,71.73
2023-03-03T22:53:23.730Z,69.97
2023-03-03T22:55:50.676Z,65.90
2023-03-03T22:58:19.735Z,68.30
2023-03-03T23:00:49.381Z,65.37
2023-03-03T23:03:16.602Z,62.40
2023-03-03T23:05:43.295Z,61.90
2023-03-03T23:08:13.197Z,61.57
2023-03-03T23:10:39.980Z,62.27
2023-03-03T23:13:07.243Z,62.30
2023-03-03T23:15:34.882Z,60.93
2023-03-03T23:18:01.803Z,59.57
2023-03-03T23:20:29.658Z,64.27
2023-03-03T23:22:56.148Z,58.03
2023-03-03T23:25:23.849Z,57.07
2023-03-03T23:27:50.732Z,58.63
2023-03-03T23:30:19.398Z,61.77
2023-03-03T23:32:47.087Z,64.33
2023-03-03T23:35:14.194Z,58.27
2023-03-03T23:37:40.764Z,61.60
2023-03-03T23:40:08.234Z,66.47
2023-03-03T23:42:34.780Z,59.50
2023-03-03T23:45:01.465Z,61.73
2023-03-03T23:47:27.985Z,61.03
2023-03-03T23:49:55.133Z,60.67
2023-03-03T23:52:21.929Z,60.80
2023-03-03T23:54:48.410Z,59.80
2023-03-03T23:57:14.908Z,61.60
2023-03-03T23:59:41.361Z,58.37
